EJA642 KIAD-CYTA
Flight info
| Callsign | EJA642 |
|---|---|
| Flight time | 1h 9m |
| Altitude | 40000 |
| Route | JERES2 JERES Q221 MICAH J61 PSB J59 SYR Q844 REEDO DCT TORNI |
| Aircraft | LJ35/M-SGHRWXY/SB1 |
Departure
| Time | 2026-05-07 02:46 |
|---|---|
| Airport | Washington Dulles International Airport (KIAD) |
Arrival
| Time | 2026-05-07 03:56 |
|---|---|
| Airport | Pembroke Airport (CYTA) |
| Time | Latitude | Longitude | Altitude | Speed | Heading |
|---|---|---|---|---|---|
| 2026-05-07 02:08 | 38.96824 | -77.45178 | 281 ft | 0 kts | 148° |
| 2026-05-07 02:35 | 38.96828 | -77.45181 | 281 ft | 2 kts | 148° |
| 2026-05-07 02:35 | 38.96839 | -77.45189 | 281 ft | 0 kts | 148° |
| 2026-05-07 02:37 | 38.96837 | -77.45188 | 281 ft | 3 kts | 147° |
| 2026-05-07 02:37 | 38.96851 | -77.45171 | 286 ft | 8 kts | 293° |
| 2026-05-07 02:37 | 38.96862 | -77.45260 | 285 ft | 12 kts | 271° |
| 2026-05-07 02:37 | 38.96863 | -77.45390 | 281 ft | 17 kts | 270° |
| 2026-05-07 02:38 | 38.96872 | -77.45522 | 281 ft | 10 kts | 274° |
| 2026-05-07 02:38 | 38.96916 | -77.45599 | 283 ft | 12 kts | 302° |
| 2026-05-07 02:38 | 38.96887 | -77.45685 | 285 ft | 14 kts | 192° |
| 2026-05-07 02:38 | 38.96773 | -77.45690 | 283 ft | 19 kts | 181° |
| 2026-05-07 02:39 | 38.96634 | -77.45693 | 280 ft | 19 kts | 181° |
| 2026-05-07 02:39 | 38.96489 | -77.45694 | 280 ft | 23 kts | 180° |
| 2026-05-07 02:39 | 38.96350 | -77.45695 | 278 ft | 19 kts | 180° |
| 2026-05-07 02:39 | 38.96202 | -77.45698 | 280 ft | 23 kts | 182° |
| 2026-05-07 02:40 | 38.96042 | -77.45699 | 284 ft | 22 kts | 180° |
| 2026-05-07 02:40 | 38.95894 | -77.45702 | 286 ft | 18 kts | 181° |
| 2026-05-07 02:40 | 38.95764 | -77.45704 | 295 ft | 20 kts | 179° |
| 2026-05-07 02:40 | 38.95616 | -77.45707 | 291 ft | 23 kts | 181° |
| 2026-05-07 02:41 | 38.95448 | -77.45702 | 291 ft | 19 kts | 185° |
| 2026-05-07 02:41 | 38.95312 | -77.45711 | 291 ft | 22 kts | 181° |
| 2026-05-07 02:41 | 38.95147 | -77.45711 | 286 ft | 27 kts | 181° |
| 2026-05-07 02:41 | 38.94956 | -77.45717 | 288 ft | 27 kts | 181° |
| 2026-05-07 02:42 | 38.94755 | -77.45720 | 287 ft | 29 kts | 180° |
| 2026-05-07 02:42 | 38.94593 | -77.45722 | 296 ft | 21 kts | 179° |
| 2026-05-07 02:42 | 38.94437 | -77.45724 | 296 ft | 24 kts | 180° |
| 2026-05-07 02:42 | 38.94266 | -77.45726 | 301 ft | 23 kts | 180° |
| 2026-05-07 02:43 | 38.94110 | -77.45727 | 302 ft | 21 kts | 181° |
| 2026-05-07 02:43 | 38.93948 | -77.45731 | 297 ft | 19 kts | 181° |
| 2026-05-07 02:43 | 38.93856 | -77.45734 | 298 ft | 13 kts | 197° |
| 2026-05-07 02:43 | 38.93834 | -77.45804 | 297 ft | 0 kts | 309° |
| 2026-05-07 02:45 | 38.93837 | -77.45809 | 300 ft | 5 kts | 309° |
| 2026-05-07 02:45 | 38.93879 | -77.45871 | 300 ft | 13 kts | 311° |
| 2026-05-07 02:45 | 38.93951 | -77.45965 | 300 ft | 14 kts | 334° |
| 2026-05-07 02:45 | 38.94115 | -77.45974 | 299 ft | 54 kts | 360° |
| 2026-05-07 02:46 | 38.94819 | -77.45965 | 311 ft | 145 kts | 359° |
| 2026-05-07 02:46 | 38.95987 | -77.45910 | 972 ft | 186 kts | 1° |
| 2026-05-07 02:46 | 38.97304 | -77.46153 | 1877 ft | 198 kts | 344° |
| 2026-05-07 02:46 | 38.98657 | -77.46755 | 2559 ft | 212 kts | 336° |
| 2026-05-07 02:47 | 38.99983 | -77.47575 | 3455 ft | 211 kts | 329° |
| 2026-05-07 02:47 | 39.01324 | -77.48478 | 3983 ft | 232 kts | 331° |
| 2026-05-07 02:47 | 39.02906 | -77.49215 | 4544 ft | 247 kts | 342° |
| 2026-05-07 02:47 | 39.04581 | -77.49631 | 5472 ft | 243 kts | 345° |
| 2026-05-07 02:48 | 39.06286 | -77.49972 | 6052 ft | 257 kts | 346° |
| 2026-05-07 02:48 | 39.08109 | -77.50427 | 6371 ft | 280 kts | 335° |
| 2026-05-07 02:48 | 39.09775 | -77.51522 | 7788 ft | 264 kts | 327° |
| 2026-05-07 02:48 | 39.11565 | -77.52270 | 9007 ft | 278 kts | 338° |
| 2026-05-07 02:49 | 39.13490 | -77.52770 | 10171 ft | 286 kts | 341° |
| 2026-05-07 02:49 | 39.15470 | -77.53198 | 11230 ft | 291 kts | 341° |
| 2026-05-07 02:49 | 39.17502 | -77.53558 | 12291 ft | 298 kts | 343° |
| 2026-05-07 02:49 | 39.19585 | -77.53837 | 13348 ft | 303 kts | 344° |
| 2026-05-07 02:50 | 39.21698 | -77.54128 | 14325 ft | 307 kts | 343° |
| 2026-05-07 02:50 | 39.23821 | -77.54451 | 15315 ft | 308 kts | 342° |
| 2026-05-07 02:50 | 39.25957 | -77.54778 | 16299 ft | 311 kts | 341° |
| 2026-05-07 02:50 | 39.28128 | -77.55108 | 17006 ft | 320 kts | 341° |
| 2026-05-07 02:51 | 39.30404 | -77.55453 | 17023 ft | 338 kts | 342° |
| 2026-05-07 02:51 | 39.32764 | -77.55796 | 17025 ft | 344 kts | 342° |
| 2026-05-07 02:51 | 39.35158 | -77.56146 | 17137 ft | 345 kts | 342° |
| 2026-05-07 02:51 | 39.36757 | -77.56378 | 17569 ft | 340 kts | 342° |
| 2026-05-07 02:52 | 39.39094 | -77.56640 | 18550 ft | 339 kts | 347° |
| 2026-05-07 02:52 | 39.41471 | -77.56081 | 19473 ft | 363 kts | 6° |
| 2026-05-07 02:52 | 39.43884 | -77.54955 | 20664 ft | 372 kts | 7° |
| 2026-05-07 02:52 | 39.46343 | -77.53800 | 21824 ft | 380 kts | 6° |
| 2026-05-07 02:53 | 39.48870 | -77.52646 | 22942 ft | 389 kts | 5° |
| 2026-05-07 02:53 | 39.51455 | -77.51463 | 23966 ft | 399 kts | 5° |
| 2026-05-07 02:53 | 39.54087 | -77.50238 | 24920 ft | 406 kts | 6° |
| 2026-05-07 02:53 | 39.56770 | -77.48987 | 25840 ft | 413 kts | 5° |
| 2026-05-07 02:54 | 39.59504 | -77.47726 | 26719 ft | 422 kts | 5° |
| 2026-05-07 02:54 | 39.62294 | -77.46438 | 27626 ft | 428 kts | 5° |
| 2026-05-07 02:54 | 39.65129 | -77.45547 | 28461 ft | 409 kts | 349° |
| 2026-05-07 02:54 | 39.67922 | -77.45435 | 29411 ft | 402 kts | 343° |
| 2026-05-07 02:55 | 39.70742 | -77.45411 | 30209 ft | 408 kts | 343° |
| 2026-05-07 02:55 | 39.73592 | -77.45361 | 30983 ft | 411 kts | 343° |
| 2026-05-07 02:55 | 39.76449 | -77.45292 | 31920 ft | 408 kts | 342° |
| 2026-05-07 02:55 | 39.79264 | -77.45235 | 32994 ft | 401 kts | 341° |
| 2026-05-07 02:56 | 39.82029 | -77.45187 | 34006 ft | 395 kts | 340° |
| 2026-05-07 02:56 | 39.84759 | -77.45160 | 34818 ft | 390 kts | 339° |
| 2026-05-07 02:56 | 39.87458 | -77.45123 | 35561 ft | 388 kts | 340° |
| 2026-05-07 02:56 | 39.90160 | -77.45070 | 36289 ft | 385 kts | 339° |
| 2026-05-07 02:57 | 39.92833 | -77.45011 | 36993 ft | 383 kts | 339° |
| 2026-05-07 02:57 | 39.95489 | -77.44963 | 37684 ft | 379 kts | 339° |
| 2026-05-07 02:57 | 39.98118 | -77.44936 | 38311 ft | 376 kts | 338° |
| 2026-05-07 02:57 | 40.00728 | -77.44926 | 38890 ft | 375 kts | 338° |
| 2026-05-07 02:58 | 40.03348 | -77.44867 | 39333 ft | 378 kts | 340° |
| 2026-05-07 02:58 | 40.05982 | -77.44791 | 39753 ft | 379 kts | 340° |
| 2026-05-07 02:58 | 40.08619 | -77.44746 | 40187 ft | 379 kts | 340° |
| 2026-05-07 02:58 | 40.11254 | -77.44725 | 40616 ft | 379 kts | 340° |
| 2026-05-07 02:59 | 40.13899 | -77.44702 | 41035 ft | 377 kts | 339° |
| 2026-05-07 02:59 | 40.16359 | -77.45221 | 41365 ft | 346 kts | 324° |
| 2026-05-07 02:59 | 40.18524 | -77.46463 | 41162 ft | 340 kts | 314° |
| 2026-05-07 02:59 | 40.20600 | -77.47998 | 40924 ft | 355 kts | 314° |
| 2026-05-07 03:00 | 40.22805 | -77.49584 | 40759 ft | 368 kts | 314° |
| 2026-05-07 03:00 | 40.25082 | -77.51195 | 40655 ft | 377 kts | 316° |
| 2026-05-07 03:00 | 40.27414 | -77.52828 | 40540 ft | 383 kts | 316° |
| 2026-05-07 03:00 | 40.29763 | -77.54500 | 40442 ft | 385 kts | 315° |
| 2026-05-07 03:01 | 40.34470 | -77.57897 | 40278 ft | 388 kts | 315° |
| 2026-05-07 03:01 | 40.39217 | -77.61288 | 40142 ft | 389 kts | 315° |
| 2026-05-07 03:02 | 40.43958 | -77.64700 | 39987 ft | 389 kts | 315° |
| 2026-05-07 03:02 | 40.48693 | -77.68098 | 39962 ft | 388 kts | 315° |
| 2026-05-07 03:03 | 40.53405 | -77.71509 | 39961 ft | 386 kts | 315° |
| 2026-05-07 03:03 | 40.58113 | -77.74900 | 39959 ft | 386 kts | 315° |
| 2026-05-07 03:04 | 40.62812 | -77.78302 | 39963 ft | 385 kts | 315° |
| 2026-05-07 03:04 | 40.67514 | -77.81707 | 39964 ft | 385 kts | 315° |
| 2026-05-07 03:05 | 40.72217 | -77.85127 | 39973 ft | 388 kts | 315° |
| 2026-05-07 03:05 | 40.76956 | -77.88562 | 39974 ft | 389 kts | 315° |
| 2026-05-07 03:06 | 40.81681 | -77.92005 | 39976 ft | 388 kts | 315° |
| 2026-05-07 03:06 | 40.86423 | -77.95436 | 39974 ft | 389 kts | 315° |
| 2026-05-07 03:07 | 40.88972 | -77.96869 | 39963 ft | 417 kts | 328° |
| 2026-05-07 03:07 | 40.91986 | -77.97304 | 39967 ft | 458 kts | 346° |
| 2026-05-07 03:07 | 40.95244 | -77.96472 | 39973 ft | 499 kts | 4° |
| 2026-05-07 03:07 | 40.98472 | -77.94454 | 39968 ft | 522 kts | 15° |
| 2026-05-07 03:08 | 41.04702 | -77.89241 | 39980 ft | 533 kts | 21° |
| 2026-05-07 03:08 | 41.11009 | -77.84309 | 39972 ft | 520 kts | 14° |
| 2026-05-07 03:09 | 41.17366 | -77.79589 | 39972 ft | 530 kts | 19° |
| 2026-05-07 03:09 | 41.23665 | -77.74548 | 39971 ft | 525 kts | 16° |
| 2026-05-07 03:10 | 41.30011 | -77.69775 | 39979 ft | 526 kts | 18° |
| 2026-05-07 03:10 | 41.36316 | -77.64781 | 39971 ft | 526 kts | 18° |
| 2026-05-07 03:11 | 41.42651 | -77.59926 | 39968 ft | 525 kts | 18° |
| 2026-05-07 03:11 | 41.48953 | -77.54966 | 39959 ft | 526 kts | 18° |
| 2026-05-07 03:12 | 41.55276 | -77.50053 | 39974 ft | 526 kts | 18° |
| 2026-05-07 03:12 | 41.61583 | -77.45102 | 39975 ft | 525 kts | 18° |
| 2026-05-07 03:13 | 41.67853 | -77.40187 | 39971 ft | 526 kts | 18° |
| 2026-05-07 03:13 | 41.74170 | -77.35223 | 39973 ft | 528 kts | 19° |
| 2026-05-07 03:14 | 41.80500 | -77.30222 | 39970 ft | 528 kts | 19° |
| 2026-05-07 03:15 | 41.90003 | -77.22712 | 39967 ft | 528 kts | 19° |
| 2026-05-07 03:15 | 41.96329 | -77.17694 | 39961 ft | 528 kts | 20° |
| 2026-05-07 03:16 | 42.02655 | -77.12665 | 39966 ft | 528 kts | 20° |
| 2026-05-07 03:16 | 42.08984 | -77.07623 | 39963 ft | 528 kts | 20° |
| 2026-05-07 03:17 | 42.15304 | -77.02571 | 39954 ft | 528 kts | 20° |
| 2026-05-07 03:17 | 42.21620 | -76.97520 | 39965 ft | 528 kts | 20° |
| 2026-05-07 03:18 | 42.27945 | -76.92441 | 40001 ft | 529 kts | 20° |
| 2026-05-07 03:18 | 42.34275 | -76.87351 | 39965 ft | 529 kts | 20° |
| 2026-05-07 03:19 | 42.40586 | -76.82259 | 39954 ft | 528 kts | 20° |
| 2026-05-07 03:19 | 42.46902 | -76.77159 | 39974 ft | 528 kts | 21° |
| 2026-05-07 03:20 | 42.53205 | -76.72046 | 39959 ft | 527 kts | 21° |
| 2026-05-07 03:20 | 42.59494 | -76.66944 | 39956 ft | 527 kts | 21° |
| 2026-05-07 03:21 | 42.65780 | -76.61824 | 39974 ft | 527 kts | 21° |
| 2026-05-07 03:21 | 42.72051 | -76.56705 | 39963 ft | 525 kts | 21° |
| 2026-05-07 03:22 | 42.78309 | -76.51588 | 39964 ft | 524 kts | 21° |
| 2026-05-07 03:22 | 42.84550 | -76.46473 | 39963 ft | 524 kts | 22° |
| 2026-05-07 03:23 | 42.90781 | -76.41348 | 39963 ft | 523 kts | 22° |
| 2026-05-07 03:23 | 42.97005 | -76.36223 | 39959 ft | 522 kts | 22° |
| 2026-05-07 03:24 | 43.03229 | -76.31084 | 39959 ft | 523 kts | 22° |
| 2026-05-07 03:24 | 43.09429 | -76.25947 | 39959 ft | 520 kts | 22° |
| 2026-05-07 03:25 | 43.15718 | -76.21228 | 39941 ft | 504 kts | 10° |
| 2026-05-07 03:25 | 43.19047 | -76.20012 | 39940 ft | 486 kts | 358° |
| 2026-05-07 03:25 | 43.22376 | -76.19473 | 39960 ft | 481 kts | 355° |
| 2026-05-07 03:26 | 43.29043 | -76.18490 | 39967 ft | 483 kts | 356° |
| 2026-05-07 03:26 | 43.35718 | -76.17451 | 39968 ft | 482 kts | 356° |
| 2026-05-07 03:27 | 43.42396 | -76.16455 | 39968 ft | 484 kts | 356° |
| 2026-05-07 03:27 | 43.49082 | -76.15404 | 39966 ft | 483 kts | 356° |
| 2026-05-07 03:28 | 43.55774 | -76.14393 | 39957 ft | 483 kts | 356° |
| 2026-05-07 03:28 | 43.62461 | -76.13353 | 39959 ft | 484 kts | 356° |
| 2026-05-07 03:29 | 43.69110 | -76.12337 | 39955 ft | 484 kts | 357° |
| 2026-05-07 03:29 | 43.75847 | -76.11290 | 39950 ft | 484 kts | 356° |
| 2026-05-07 03:30 | 43.82513 | -76.10262 | 39945 ft | 485 kts | 357° |
| 2026-05-07 03:30 | 43.89093 | -76.09218 | 39838 ft | 464 kts | 356° |
| 2026-05-07 03:30 | 43.92315 | -76.08730 | 39165 ft | 467 kts | 356° |
| 2026-05-07 03:31 | 43.95546 | -76.08248 | 38689 ft | 469 kts | 356° |
| 2026-05-07 03:31 | 43.98808 | -76.07736 | 38121 ft | 472 kts | 356° |
| 2026-05-07 03:31 | 44.02084 | -76.07211 | 37549 ft | 476 kts | 356° |
| 2026-05-07 03:31 | 44.05389 | -76.06696 | 36994 ft | 479 kts | 355° |
| 2026-05-07 03:32 | 44.08716 | -76.06184 | 36457 ft | 482 kts | 355° |
| 2026-05-07 03:32 | 44.12052 | -76.05661 | 35932 ft | 484 kts | 355° |
| 2026-05-07 03:32 | 44.15408 | -76.05130 | 35452 ft | 485 kts | 356° |
| 2026-05-07 03:32 | 44.18757 | -76.04603 | 34945 ft | 485 kts | 356° |
| 2026-05-07 03:33 | 44.22114 | -76.04077 | 34444 ft | 485 kts | 356° |
| 2026-05-07 03:33 | 44.25465 | -76.03551 | 33952 ft | 484 kts | 355° |
| 2026-05-07 03:33 | 44.28809 | -76.03025 | 33375 ft | 484 kts | 356° |
| 2026-05-07 03:33 | 44.32155 | -76.02499 | 32792 ft | 484 kts | 356° |
| 2026-05-07 03:34 | 44.35495 | -76.02056 | 32249 ft | 480 kts | 355° |
| 2026-05-07 03:34 | 44.38814 | -76.01710 | 31699 ft | 481 kts | 356° |
| 2026-05-07 03:34 | 44.42159 | -76.01307 | 31190 ft | 481 kts | 359° |
| 2026-05-07 03:34 | 44.45487 | -76.00885 | 30648 ft | 479 kts | 357° |
| 2026-05-07 03:35 | 44.48812 | -76.00553 | 30125 ft | 478 kts | 357° |
| 2026-05-07 03:35 | 44.52128 | -76.00228 | 29535 ft | 478 kts | 358° |
| 2026-05-07 03:35 | 44.54324 | -75.99979 | 29127 ft | 478 kts | 358° |
| 2026-05-07 03:35 | 44.57640 | -75.99574 | 28521 ft | 479 kts | 359° |
| 2026-05-07 03:36 | 44.60962 | -75.99193 | 27927 ft | 479 kts | 358° |
| 2026-05-07 03:36 | 44.64279 | -75.98842 | 27355 ft | 479 kts | 358° |
| 2026-05-07 03:36 | 44.67601 | -75.98527 | 26773 ft | 476 kts | 355° |
| 2026-05-07 03:36 | 44.70848 | -75.98979 | 26179 ft | 464 kts | 342° |
| 2026-05-07 03:37 | 44.73873 | -76.00348 | 25620 ft | 453 kts | 330° |
| 2026-05-07 03:37 | 44.76739 | -76.02154 | 25087 ft | 451 kts | 329° |
| 2026-05-07 03:37 | 44.79594 | -76.03977 | 24561 ft | 450 kts | 329° |
| 2026-05-07 03:37 | 44.82447 | -76.05768 | 24048 ft | 449 kts | 329° |
| 2026-05-07 03:38 | 44.85301 | -76.07544 | 23539 ft | 448 kts | 329° |
| 2026-05-07 03:38 | 44.88140 | -76.09331 | 22947 ft | 446 kts | 329° |
| 2026-05-07 03:38 | 44.90963 | -76.11120 | 22354 ft | 444 kts | 329° |
| 2026-05-07 03:38 | 44.93780 | -76.12897 | 21778 ft | 443 kts | 329° |
| 2026-05-07 03:39 | 44.96586 | -76.14665 | 21236 ft | 441 kts | 329° |
| 2026-05-07 03:39 | 44.99386 | -76.16437 | 20670 ft | 440 kts | 329° |
| 2026-05-07 03:39 | 45.02171 | -76.18200 | 20126 ft | 438 kts | 329° |
| 2026-05-07 03:39 | 45.04944 | -76.19957 | 19583 ft | 436 kts | 329° |
| 2026-05-07 03:40 | 45.07705 | -76.21708 | 19056 ft | 434 kts | 329° |
| 2026-05-07 03:40 | 45.10287 | -76.23681 | 18507 ft | 422 kts | 318° |
| 2026-05-07 03:40 | 45.12510 | -76.26386 | 17942 ft | 409 kts | 311° |
| 2026-05-07 03:40 | 45.14561 | -76.29109 | 17371 ft | 401 kts | 310° |
| 2026-05-07 03:41 | 45.16556 | -76.31752 | 16796 ft | 395 kts | 311° |
| 2026-05-07 03:41 | 45.18565 | -76.34381 | 16225 ft | 392 kts | 311° |
| 2026-05-07 03:41 | 45.20558 | -76.36988 | 15659 ft | 388 kts | 311° |
| 2026-05-07 03:41 | 45.22522 | -76.39575 | 15108 ft | 379 kts | 311° |
| 2026-05-07 03:42 | 45.24445 | -76.42109 | 14566 ft | 366 kts | 311° |
| 2026-05-07 03:42 | 45.26259 | -76.44503 | 14035 ft | 357 kts | 312° |
| 2026-05-07 03:42 | 45.28059 | -76.46881 | 13480 ft | 350 kts | 312° |
| 2026-05-07 03:42 | 45.29827 | -76.49219 | 12874 ft | 345 kts | 312° |
| 2026-05-07 03:43 | 45.31575 | -76.51530 | 12287 ft | 341 kts | 312° |
| 2026-05-07 03:43 | 45.33301 | -76.53814 | 11712 ft | 338 kts | 313° |
| 2026-05-07 03:43 | 45.34965 | -76.56012 | 11343 ft | 315 kts | 313° |
| 2026-05-07 03:43 | 45.36518 | -76.58067 | 11029 ft | 296 kts | 312° |
| 2026-05-07 03:44 | 45.37983 | -76.60015 | 10744 ft | 281 kts | 312° |
| 2026-05-07 03:44 | 45.39383 | -76.61876 | 10477 ft | 270 kts | 313° |
| 2026-05-07 03:44 | 45.40729 | -76.63665 | 10212 ft | 261 kts | 312° |
| 2026-05-07 03:44 | 45.42046 | -76.65420 | 9950 ft | 258 kts | 313° |
| 2026-05-07 03:45 | 45.43350 | -76.67155 | 9687 ft | 255 kts | 313° |
| 2026-05-07 03:45 | 45.44644 | -76.68877 | 9402 ft | 254 kts | 313° |
| 2026-05-07 03:45 | 45.45928 | -76.70588 | 9129 ft | 252 kts | 313° |
| 2026-05-07 03:45 | 45.47204 | -76.72288 | 8853 ft | 251 kts | 313° |
| 2026-05-07 03:46 | 45.48477 | -76.73986 | 8576 ft | 250 kts | 313° |
| 2026-05-07 03:46 | 45.49753 | -76.75689 | 8307 ft | 253 kts | 314° |
| 2026-05-07 03:46 | 45.51044 | -76.77412 | 8043 ft | 255 kts | 314° |
| 2026-05-07 03:46 | 45.52330 | -76.79131 | 7786 ft | 258 kts | 314° |
| 2026-05-07 03:47 | 45.53659 | -76.80910 | 7526 ft | 260 kts | 314° |
| 2026-05-07 03:47 | 45.54982 | -76.82677 | 7272 ft | 261 kts | 314° |
| 2026-05-07 03:47 | 45.56221 | -76.84526 | 6989 ft | 262 kts | 304° |
| 2026-05-07 03:47 | 45.57179 | -76.86745 | 6638 ft | 265 kts | 297° |
| 2026-05-07 03:48 | 45.58070 | -76.89071 | 6296 ft | 268 kts | 298° |
| 2026-05-07 03:48 | 45.59045 | -76.91357 | 5926 ft | 271 kts | 302° |
| 2026-05-07 03:48 | 45.60089 | -76.93602 | 5570 ft | 271 kts | 303° |
| 2026-05-07 03:48 | 45.61111 | -76.95845 | 5210 ft | 266 kts | 302° |
| 2026-05-07 03:49 | 45.62078 | -76.98027 | 4850 ft | 255 kts | 302° |
| 2026-05-07 03:49 | 45.63016 | -77.00126 | 4489 ft | 246 kts | 302° |
| 2026-05-07 03:49 | 45.63921 | -77.02157 | 4114 ft | 238 kts | 302° |
| 2026-05-07 03:49 | 45.64786 | -77.04096 | 3736 ft | 225 kts | 302° |
| 2026-05-07 03:50 | 45.65608 | -77.05942 | 3370 ft | 215 kts | 302° |
| 2026-05-07 03:50 | 45.66398 | -77.07715 | 2994 ft | 209 kts | 303° |
| 2026-05-07 03:50 | 45.67170 | -77.09446 | 2616 ft | 204 kts | 302° |
| 2026-05-07 03:50 | 45.67924 | -77.11142 | 2237 ft | 200 kts | 302° |
| 2026-05-07 03:51 | 45.68657 | -77.12789 | 2015 ft | 190 kts | 302° |
| 2026-05-07 03:51 | 45.69333 | -77.14317 | 2005 ft | 174 kts | 303° |
| 2026-05-07 03:51 | 45.69968 | -77.15730 | 2002 ft | 166 kts | 304° |
| 2026-05-07 03:51 | 45.70871 | -77.16710 | 2006 ft | 167 kts | 336° |
| 2026-05-07 03:52 | 45.71965 | -77.17265 | 2002 ft | 167 kts | 335° |
| 2026-05-07 03:52 | 45.73052 | -77.17865 | 2006 ft | 169 kts | 335° |
| 2026-05-07 03:52 | 45.74153 | -77.18467 | 2006 ft | 170 kts | 335° |
| 2026-05-07 03:52 | 45.75263 | -77.19067 | 2009 ft | 171 kts | 335° |
| 2026-05-07 03:53 | 45.76391 | -77.19679 | 2006 ft | 175 kts | 336° |
| 2026-05-07 03:53 | 45.77521 | -77.20292 | 2005 ft | 171 kts | 335° |
| 2026-05-07 03:53 | 45.78623 | -77.20888 | 2002 ft | 168 kts | 335° |
| 2026-05-07 03:53 | 45.79722 | -77.21489 | 1875 ft | 173 kts | 335° |
| 2026-05-07 03:54 | 45.80876 | -77.22118 | 1636 ft | 182 kts | 335° |
| 2026-05-07 03:54 | 45.82037 | -77.22740 | 1369 ft | 165 kts | 336° |
| 2026-05-07 03:54 | 45.82987 | -77.23244 | 1130 ft | 128 kts | 335° |
| 2026-05-07 03:54 | 45.83782 | -77.23700 | 899 ft | 124 kts | 335° |
| 2026-05-07 03:55 | 45.84580 | -77.24125 | 766 ft | 123 kts | 334° |
| 2026-05-07 03:55 | 45.85411 | -77.24574 | 657 ft | 129 kts | 334° |
| 2026-05-07 03:55 | 45.86196 | -77.25012 | 528 ft | 108 kts | 338° |
| 2026-05-07 03:55 | 45.86796 | -77.25331 | 534 ft | 58 kts | 339° |
| 2026-05-07 03:56 | 45.86970 | -77.25428 | 533 ft | 19 kts | 340° |
| 2026-05-07 03:56 | 45.87055 | -77.25519 | 533 ft | 17 kts | 279° |
| 2026-05-07 03:56 | 45.87020 | -77.25606 | 531 ft | 0 kts | 211° |